createdAt,value
2022-09-18T00:01:31.669Z,8.93
2022-09-18T00:04:01.919Z,8.90
2022-09-18T00:06:32.217Z,8.84
2022-09-18T00:09:02.516Z,8.88
2022-09-18T00:11:34.256Z,8.91
2022-09-18T00:14:03.757Z,8.91
2022-09-18T00:16:31.785Z,8.96
2022-09-18T00:19:00.152Z,8.97
2022-09-18T00:21:29.746Z,8.99
2022-09-18T00:23:59.715Z,9.00
2022-09-18T00:26:28.588Z,9.02
2022-09-18T00:28:57.186Z,9.06
2022-09-18T00:31:29.828Z,9.00
2022-09-18T00:33:59.026Z,9.00
2022-09-18T00:36:27.735Z,9.06
2022-09-18T00:38:55.725Z,9.06
2022-09-18T00:41:25.885Z,8.93
2022-09-18T00:43:56.868Z,9.04
2022-09-18T00:46:29.690Z,9.05
2022-09-18T00:49:06.813Z,9.10
2022-09-18T00:51:37.099Z,9.14
2022-09-18T00:54:10.629Z,9.03
2022-09-18T00:56:39.061Z,9.17
2022-09-18T00:59:07.039Z,9.21
2022-09-18T01:01:36.424Z,9.20
2022-09-18T01:04:04.517Z,9.23
2022-09-18T01:06:39.000Z,9.23
2022-09-18T01:09:25.144Z,9.27
2022-09-18T01:12:03.211Z,9.23
2022-09-18T01:14:38.169Z,9.17
2022-09-18T01:17:15.673Z,9.10
2022-09-18T01:20:37.165Z,9.09
2022-09-18T01:23:21.808Z,8.97
2022-09-18T01:26:06.233Z,8.96
2022-09-18T01:28:39.976Z,8.79
2022-09-18T01:31:11.887Z,8.91
2022-09-18T01:33:43.091Z,8.88
2022-09-18T01:36:16.105Z,8.85
2022-09-18T01:38:50.308Z,8.87
2022-09-18T01:41:22.312Z,8.83
2022-09-18T01:43:56.609Z,8.84
2022-09-18T01:46:26.098Z,8.84
2022-09-18T01:48:58.609Z,8.82
2022-09-18T01:51:32.232Z,8.79
2022-09-18T01:54:04.009Z,8.70
2022-09-18T01:56:37.304Z,8.73
2022-09-18T01:59:13.117Z,8.71
2022-09-18T02:01:44.048Z,8.73
2022-09-18T02:04:16.690Z,8.68
2022-09-18T02:06:52.706Z,8.67
2022-09-18T02:09:20.670Z,8.68
2022-09-18T02:11:54.983Z,8.68
2022-09-18T02:14:28.912Z,8.67
2022-09-18T02:17:01.496Z,8.68
2022-09-18T02:19:35.385Z,8.67
2022-09-18T02:22:10.395Z,8.69
2022-09-18T02:24:40.923Z,8.70
2022-09-18T02:27:12.493Z,8.69
2022-09-18T02:29:45.409Z,8.69
2022-09-18T02:32:14.233Z,8.72
2022-09-18T02:34:42.586Z,8.71
2022-09-18T02:37:21.829Z,8.71
2022-09-18T02:40:04.864Z,8.73
2022-09-18T02:42:43.208Z,8.74
2022-09-18T02:45:26.273Z,8.74
2022-09-18T02:48:22.740Z,8.73
2022-09-18T02:50:59.977Z,8.67
2022-09-18T02:53:33.151Z,8.63
2022-09-18T02:56:05.169Z,8.58
2022-09-18T02:58:40.543Z,8.50
2022-09-18T03:01:11.188Z,8.47
2022-09-18T03:03:39.959Z,8.43
2022-09-18T03:06:09.128Z,8.38
2022-09-18T03:08:37.478Z,8.33
2022-09-18T03:11:06.164Z,8.26
2022-09-18T03:13:34.085Z,8.23
2022-09-18T03:16:02.166Z,8.26
2022-09-18T03:18:31.464Z,8.20
2022-09-18T03:20:59.406Z,8.23
2022-09-18T03:23:27.356Z,8.26
2022-09-18T03:25:55.322Z,8.22
2022-09-18T03:28:23.261Z,8.21
2022-09-18T03:30:51.232Z,8.22
2022-09-18T03:33:19.144Z,8.27
2022-09-18T03:35:48.416Z,8.30
2022-09-18T03:38:16.396Z,8.33
2022-09-18T03:40:47.475Z,8.33
2022-09-18T03:43:15.972Z,8.35
2022-09-18T03:45:44.269Z,8.39
2022-09-18T03:48:12.226Z,8.47
2022-09-18T03:50:40.155Z,8.46
2022-09-18T03:53:09.644Z,8.48
2022-09-18T03:55:37.850Z,8.52
2022-09-18T03:58:05.849Z,8.52
2022-09-18T04:00:33.974Z,8.50
2022-09-18T04:03:02.083Z,8.47
2022-09-18T04:05:30.041Z,8.41
2022-09-18T04:07:58.308Z,8.38
2022-09-18T04:10:27.642Z,8.32
2022-09-18T04:12:55.638Z,8.27
2022-09-18T04:15:23.599Z,8.24
2022-09-18T04:17:51.528Z,8.24
2022-09-18T04:20:19.488Z,8.15
2022-09-18T04:22:47.491Z,8.14
2022-09-18T04:25:15.573Z,8.15
2022-09-18T04:27:46.026Z,8.17
2022-09-18T04:30:15.157Z,8.16
2022-09-18T04:32:43.742Z,8.20
2022-09-18T04:35:11.665Z,8.24
2022-09-18T04:37:39.641Z,8.31
2022-09-18T04:40:08.366Z,8.29
2022-09-18T04:42:36.350Z,8.37
2022-09-18T04:45:07.002Z,8.39
2022-09-18T04:47:35.021Z,8.37
2022-09-18T04:50:03.884Z,8.37
2022-09-18T04:52:31.871Z,8.38
2022-09-18T04:54:59.775Z,8.35
2022-09-18T04:57:27.693Z,8.26
2022-09-18T04:59:55.705Z,8.23
2022-09-18T05:02:25.522Z,8.25
2022-09-18T05:04:54.048Z,8.25
2022-09-18T05:07:22.065Z,8.24
2022-09-18T05:09:50.856Z,8.23
2022-09-18T05:12:18.786Z,8.23
2022-09-18T05:14:46.732Z,8.24
2022-09-18T05:17:14.676Z,8.26
2022-09-18T05:19:44.229Z,8.23
2022-09-18T05:22:12.184Z,8.24
2022-09-18T05:24:40.101Z,8.27
2022-09-18T05:27:08.969Z,8.28
2022-09-18T05:29:37.692Z,8.29
2022-09-18T05:32:05.865Z,8.32
2022-09-18T05:34:34.072Z,8.33
2022-09-18T05:37:03.413Z,8.42
2022-09-18T05:39:31.373Z,8.44
2022-09-18T05:41:59.326Z,8.46
2022-09-18T05:44:27.285Z,8.48
2022-09-18T05:46:55.294Z,8.50
2022-09-18T05:49:23.294Z,8.51
2022-09-18T05:51:51.248Z,8.49
2022-09-18T05:54:20.544Z,8.51
2022-09-18T05:56:48.546Z,8.55
2022-09-18T05:59:16.509Z,8.54
2022-09-18T06:01:47.116Z,8.55
2022-09-18T06:04:15.461Z,8.62
2022-09-18T06:06:43.405Z,8.66
2022-09-18T06:09:11.344Z,8.71
2022-09-18T06:11:40.668Z,8.75
2022-09-18T06:14:09.006Z,8.71
2022-09-18T06:16:41.919Z,8.68
2022-09-18T06:19:10.349Z,8.75
2022-09-18T06:21:38.268Z,8.76
2022-09-18T06:24:06.366Z,8.76
2022-09-18T06:26:34.412Z,8.74
2022-09-18T06:29:03.967Z,8.74
2022-09-18T06:31:32.362Z,8.77
2022-09-18T06:34:00.391Z,8.76
2022-09-18T06:36:28.336Z,8.79
2022-09-18T06:38:56.277Z,8.82
2022-09-18T06:41:24.996Z,8.84
2022-09-18T06:43:52.960Z,8.84
2022-09-18T06:46:22.309Z,8.80
2022-09-18T06:48:50.491Z,8.67
2022-09-18T06:51:18.487Z,8.74
2022-09-18T06:53:46.425Z,8.78
2022-09-18T06:56:14.349Z,8.76
2022-09-18T06:58:42.428Z,8.89
2022-09-18T07:01:10.483Z,8.96
2022-09-18T07:03:39.805Z,9.03
2022-09-18T07:06:09.942Z,9.01
2022-09-18T07:08:37.932Z,8.98
2022-09-18T07:11:06.204Z,8.89
2022-09-18T07:13:37.443Z,8.87
2022-09-18T07:16:05.976Z,8.75
2022-09-18T07:18:34.113Z,8.78
2022-09-18T07:21:03.427Z,8.78
2022-09-18T07:23:33.217Z,8.95
2022-09-18T07:26:01.844Z,9.03
2022-09-18T07:28:30.010Z,9.13
2022-09-18T07:31:03.130Z,9.13
2022-09-18T07:33:31.166Z,9.00
2022-09-18T07:36:01.027Z,9.01
2022-09-18T07:38:30.792Z,8.96
2022-09-18T07:41:01.896Z,8.84
2022-09-18T07:43:29.874Z,8.94
2022-09-18T07:45:57.924Z,9.02
2022-09-18T07:48:26.070Z,9.11
2022-09-18T07:50:57.557Z,9.15
2022-09-18T07:53:25.539Z,9.19
2022-09-18T07:55:55.838Z,9.24
2022-09-18T07:58:24.256Z,9.31
2022-09-18T08:00:53.219Z,9.43
2022-09-18T08:03:21.175Z,9.48
2022-09-18T08:05:49.237Z,9.56
2022-09-18T08:08:17.221Z,9.62
2022-09-18T08:10:45.812Z,9.53
2022-09-18T08:13:15.734Z,9.63
2022-09-18T08:15:44.483Z,9.75
2022-09-18T08:18:12.517Z,9.85
2022-09-18T08:20:41.562Z,10.05
2022-09-18T08:23:10.939Z,10.24
2022-09-18T08:25:39.378Z,10.36
2022-09-18T08:28:08.688Z,10.39
2022-09-18T08:30:38.218Z,10.33
2022-09-18T08:33:09.043Z,10.22
2022-09-18T08:35:37.368Z,10.19
2022-09-18T08:38:05.346Z,10.01
2022-09-18T08:41:00.264Z,9.78
2022-09-18T08:43:48.408Z,9.65
2022-09-18T08:46:21.183Z,9.56
2022-09-18T08:48:56.882Z,9.69
2022-09-18T08:51:30.706Z,9.79
2022-09-18T08:54:11.390Z,9.89
2022-09-18T08:56:40.655Z,10.00
2022-09-18T08:59:15.006Z,10.06
2022-09-18T09:01:52.839Z,10.14
2022-09-18T09:04:28.380Z,10.31
2022-09-18T09:07:06.059Z,10.47
2022-09-18T09:09:48.870Z,10.58
2022-09-18T09:12:26.180Z,10.68
2022-09-18T09:15:21.342Z,10.70
2022-09-18T09:18:02.454Z,10.78
2022-09-18T09:20:45.561Z,10.74
2022-09-18T09:23:20.602Z,10.80
2022-09-18T09:26:00.256Z,10.78
2022-09-18T09:28:34.144Z,10.77
2022-09-18T09:31:05.864Z,10.70
2022-09-18T09:33:40.373Z,10.82
2022-09-18T09:36:11.268Z,10.86
2022-09-18T09:38:46.307Z,10.95
2022-09-18T09:41:26.368Z,11.03
2022-09-18T09:44:04.173Z,11.03
2022-09-18T09:46:51.809Z,11.21
2022-09-18T09:49:26.323Z,11.17
2022-09-18T09:52:05.707Z,11.34
2022-09-18T09:54:37.172Z,11.32
2022-09-18T09:57:19.665Z,11.27
2022-09-18T09:59:59.069Z,11.29
2022-09-18T10:02:34.680Z,11.44
2022-09-18T10:05:14.707Z,11.40
2022-09-18T10:07:48.464Z,11.55
2022-09-18T10:10:31.721Z,11.55
2022-09-18T10:13:04.794Z,11.55
2022-09-18T10:15:39.319Z,11.52
2022-09-18T10:18:16.442Z,11.67
2022-09-18T10:20:47.274Z,11.66
2022-09-18T10:23:23.962Z,11.77
2022-09-18T10:25:57.908Z,12.01
2022-09-18T10:28:29.407Z,12.06
2022-09-18T10:31:00.590Z,12.08
2022-09-18T10:33:34.466Z,12.22
2022-09-18T10:36:11.216Z,12.23
2022-09-18T10:38:39.916Z,12.14
2022-09-18T10:41:27.097Z,11.97
2022-09-18T10:43:58.734Z,11.84
2022-09-18T10:46:31.475Z,11.79
2022-09-18T10:49:04.051Z,11.47
2022-09-18T10:51:33.486Z,11.00
2022-09-18T10:54:15.449Z,10.89
2022-09-18T10:56:43.436Z,10.65
2022-09-18T10:59:32.083Z,10.58
2022-09-18T11:02:02.223Z,10.46
2022-09-18T11:04:32.142Z,10.45
2022-09-18T11:07:07.265Z,10.49
2022-09-18T11:09:39.642Z,10.56
2022-09-18T11:12:16.117Z,10.49
2022-09-18T11:14:47.424Z,10.71
2022-09-18T11:17:24.297Z,10.78
2022-09-18T11:19:53.699Z,11.01
2022-09-18T11:22:42.707Z,11.19
2022-09-18T11:25:22.813Z,11.40
2022-09-18T11:27:52.999Z,11.52
2022-09-18T11:30:23.971Z,11.69
2022-09-18T11:32:58.320Z,11.87
2022-09-18T11:35:29.598Z,11.97
2022-09-18T11:38:06.241Z,11.93
2022-09-18T11:40:45.005Z,11.55
2022-09-18T11:43:17.362Z,9.75
2022-09-18T11:45:53.021Z,8.97
2022-09-18T11:48:31.648Z,8.67
2022-09-18T11:51:03.354Z,8.45
2022-09-18T11:53:38.381Z,8.39
2022-09-18T11:56:09.907Z,8.36
2022-09-18T11:58:44.498Z,8.30
2022-09-18T12:01:21.681Z,8.17
2022-09-18T12:03:57.272Z,8.34
2022-09-18T12:06:32.734Z,8.38
2022-09-18T12:09:10.729Z,8.61
2022-09-18T12:11:44.644Z,8.62
2022-09-18T12:14:19.835Z,8.77
2022-09-18T12:16:59.038Z,8.93
2022-09-18T12:19:34.678Z,9.03
2022-09-18T12:22:10.265Z,9.21
2022-09-18T12:24:39.678Z,9.66
2022-09-18T12:27:20.041Z,9.75
2022-09-18T12:30:03.377Z,9.78
2022-09-18T12:32:57.477Z,9.65
2022-09-18T12:35:36.831Z,9.54
2022-09-18T12:38:14.625Z,9.45
2022-09-18T12:41:07.423Z,9.38
2022-09-18T12:44:03.836Z,9.27
2022-09-18T12:47:00.576Z,9.16
2022-09-18T12:49:42.843Z,9.08
2022-09-18T12:52:27.524Z,8.98
2022-09-18T12:55:25.418Z,8.93
2022-09-18T12:58:07.491Z,8.99
2022-09-18T13:00:38.364Z,9.07
2022-09-18T13:03:15.621Z,9.12
2022-09-18T13:05:48.850Z,9.33
2022-09-18T13:08:22.277Z,9.59
2022-09-18T13:10:56.854Z,9.72
2022-09-18T13:13:36.752Z,9.41
2022-09-18T13:16:12.135Z,9.25
2022-09-18T13:18:46.733Z,9.16
2022-09-18T13:21:20.195Z,9.13
2022-09-18T13:23:50.188Z,9.13
2022-09-18T13:26:19.337Z,9.14
2022-09-18T13:28:50.405Z,9.19
2022-09-18T13:31:28.750Z,9.38
2022-09-18T13:34:00.347Z,9.56
2022-09-18T13:36:31.924Z,9.51
2022-09-18T13:39:02.890Z,9.61
2022-09-18T13:41:42.390Z,9.73
2022-09-18T13:44:21.138Z,10.00
2022-09-18T13:46:51.224Z,10.13
2022-09-18T13:49:23.369Z,9.99
2022-09-18T13:51:51.380Z,9.91
2022-09-18T13:54:23.298Z,9.69
2022-09-18T13:57:14.839Z,9.61
2022-09-18T13:59:50.000Z,9.41
2022-09-18T14:02:32.190Z,9.26
2022-09-18T14:05:03.400Z,9.17
2022-09-18T14:07:50.135Z,9.21
2022-09-18T14:10:28.895Z,9.39
2022-09-18T14:13:32.580Z,9.74
2022-09-18T14:16:07.064Z,9.81
2022-09-18T14:18:39.316Z,9.69
2022-09-18T14:21:24.381Z,9.59
2022-09-18T14:24:37.863Z,9.68
2022-09-18T14:27:30.720Z,9.84
2022-09-18T14:30:01.422Z,9.92
2022-09-18T14:32:31.481Z,9.80
2022-09-18T14:35:25.935Z,10.59
2022-09-18T14:37:54.015Z,12.08
2022-09-18T14:40:24.776Z,13.49
2022-09-18T14:42:52.918Z,14.51
2022-09-18T14:45:30.858Z,14.22
2022-09-18T14:48:00.473Z,13.80
2022-09-18T14:50:31.973Z,13.14
2022-09-18T14:53:01.988Z,12.89
2022-09-18T14:55:37.990Z,12.51
2022-09-18T14:58:08.146Z,12.23
2022-09-18T15:00:38.569Z,11.86
2022-09-18T15:03:16.792Z,11.74
2022-09-18T15:05:44.928Z,11.86
2022-09-18T15:08:18.499Z,12.37
2022-09-18T15:10:49.478Z,12.53
2022-09-18T15:13:18.730Z,13.21
2022-09-18T15:15:47.406Z,14.17
2022-09-18T15:18:23.640Z,14.87
2022-09-18T15:20:53.190Z,15.36
2022-09-18T15:23:26.626Z,15.08
2022-09-18T15:25:57.073Z,14.59
2022-09-18T15:28:27.844Z,14.31
2022-09-18T15:30:59.536Z,13.59
2022-09-18T15:33:29.361Z,13.61
2022-09-18T15:35:58.320Z,13.55
2022-09-18T15:38:35.738Z,13.29
2022-09-18T15:41:22.612Z,13.07
2022-09-18T15:43:50.669Z,12.74
2022-09-18T15:46:26.488Z,12.38
2022-09-18T15:48:59.483Z,12.33
2022-09-18T15:51:29.856Z,12.31
2022-09-18T15:54:04.012Z,11.95
2022-09-18T15:56:34.022Z,12.02
2022-09-18T15:59:04.940Z,11.61
2022-09-18T16:01:36.139Z,11.74
2022-09-18T16:04:24.721Z,11.68
2022-09-18T16:06:56.878Z,11.39
2022-09-18T16:09:34.816Z,11.41
2022-09-18T16:12:03.369Z,11.35
2022-09-18T16:14:46.122Z,11.38
2022-09-18T16:17:36.752Z,11.51
2022-09-18T16:20:30.715Z,11.56
2022-09-18T16:23:06.761Z,11.30
2022-09-18T16:25:41.463Z,11.22
2022-09-18T16:28:23.418Z,11.20
2022-09-18T16:30:51.849Z,11.08
2022-09-18T16:33:21.876Z,11.30
2022-09-18T16:35:57.796Z,11.26
2022-09-18T16:38:25.744Z,11.16
2022-09-18T16:40:53.946Z,11.12
2022-09-18T16:43:21.982Z,10.96
2022-09-18T16:45:50.294Z,10.83
2022-09-18T16:48:19.248Z,10.74
2022-09-18T16:50:47.884Z,10.60
2022-09-18T16:53:17.585Z,10.40
2022-09-18T16:55:49.637Z,10.33
2022-09-18T16:58:19.423Z,10.14
2022-09-18T17:00:47.511Z,10.16
2022-09-18T17:03:18.062Z,10.16
2022-09-18T17:05:46.478Z,10.12
2022-09-18T17:08:14.444Z,10.02
2022-09-18T17:10:45.279Z,9.98
2022-09-18T17:13:14.009Z,9.90
2022-09-18T17:15:42.479Z,9.71
2022-09-18T17:18:10.528Z,9.77
2022-09-18T17:20:38.494Z,9.73
2022-09-18T17:23:07.037Z,9.68
2022-09-18T17:25:35.068Z,9.66
2022-09-18T17:28:04.930Z,9.63
2022-09-18T17:30:33.167Z,9.45
2022-09-18T17:33:01.384Z,9.60
2022-09-18T17:35:29.605Z,9.57
2022-09-18T17:37:57.585Z,9.50
2022-09-18T17:40:25.687Z,9.45
2022-09-18T17:42:53.885Z,9.47
2022-09-18T17:45:23.233Z,9.45
2022-09-18T17:47:52.929Z,9.46
2022-09-18T17:50:22.046Z,9.40
2022-09-18T17:52:50.132Z,9.35
2022-09-18T17:55:18.586Z,9.33
2022-09-18T17:57:46.582Z,9.29
2022-09-18T18:00:15.702Z,9.30
2022-09-18T18:02:45.033Z,9.30
2022-09-18T18:05:13.065Z,9.28
2022-09-18T18:07:40.995Z,9.27
2022-09-18T18:10:09.862Z,9.22
2022-09-18T18:12:37.828Z,9.21
2022-09-18T18:15:06.545Z,9.16
2022-09-18T18:17:35.959Z,9.08
2022-09-18T18:20:06.389Z,9.07
2022-09-18T18:22:34.340Z,9.01
2022-09-18T18:25:02.530Z,8.94
2022-09-18T18:27:30.482Z,8.92
2022-09-18T18:29:59.038Z,8.89
2022-09-18T18:32:27.463Z,8.73
2022-09-18T18:34:55.601Z,8.81
2022-09-18T18:37:24.913Z,8.77
2022-09-18T18:39:52.949Z,8.76
2022-09-18T18:42:20.970Z,8.75
2022-09-18T18:44:49.030Z,8.67
2022-09-18T18:47:20.378Z,8.63
2022-09-18T18:49:48.835Z,8.45
2022-09-18T18:52:16.818Z,8.56
2022-09-18T18:54:46.198Z,8.55
2022-09-18T18:57:14.170Z,8.56
2022-09-18T18:59:43.873Z,8.58
2022-09-18T19:02:11.945Z,8.62
2022-09-18T19:04:41.484Z,8.57
2022-09-18T19:07:09.532Z,8.58
2022-09-18T19:09:37.544Z,8.55
2022-09-18T19:12:07.259Z,8.56
2022-09-18T19:14:37.981Z,8.55
2022-09-18T19:17:06.199Z,8.53
2022-09-18T19:19:34.266Z,8.55
2022-09-18T19:22:02.249Z,8.62
2022-09-18T19:24:31.256Z,8.59
2022-09-18T19:26:59.489Z,8.61
2022-09-18T19:29:30.542Z,8.65
2022-09-18T19:32:00.357Z,8.63
2022-09-18T19:34:28.426Z,8.72
2022-09-18T19:36:56.987Z,8.76
2022-09-18T19:39:24.939Z,8.75
2022-09-18T19:41:57.408Z,8.80
2022-09-18T19:44:31.674Z,8.80
2022-09-18T19:47:02.320Z,8.79
2022-09-18T19:49:33.600Z,8.78
2022-09-18T19:52:02.050Z,8.81
2022-09-18T19:54:30.975Z,8.82
2022-09-18T19:56:59.141Z,8.79
2022-09-18T19:59:28.842Z,8.79
2022-09-18T20:01:57.047Z,8.77
2022-09-18T20:04:25.075Z,8.76
2022-09-18T20:06:53.048Z,8.74
2022-09-18T20:09:21.455Z,8.73
2022-09-18T20:14:29.841Z,8.73
2022-09-18T20:16:57.814Z,8.78
2022-09-18T20:19:26.416Z,8.74
2022-09-18T20:21:54.732Z,8.71
2022-09-18T20:24:22.798Z,8.74
2022-09-18T20:26:51.400Z,8.78
2022-09-18T20:29:19.457Z,8.76
2022-09-18T20:31:50.023Z,8.78
2022-09-18T20:34:22.311Z,8.80
2022-09-18T20:36:51.961Z,8.81
2022-09-18T20:39:21.539Z,8.80
2022-09-18T20:41:51.180Z,8.82
2022-09-18T20:44:19.892Z,8.84
2022-09-18T20:46:50.502Z,8.88
2022-09-18T20:49:18.522Z,8.92
2022-09-18T20:51:46.699Z,8.98
2022-09-18T20:54:15.836Z,8.93
2022-09-18T20:56:44.282Z,8.93
2022-09-18T20:59:13.301Z,8.93
2022-09-18T21:01:42.017Z,8.93
2022-09-18T21:04:16.991Z,8.97
2022-09-18T21:06:46.387Z,8.98
2022-09-18T21:09:15.292Z,8.85
2022-09-18T21:11:44.880Z,9.01
2022-09-18T21:14:15.380Z,8.99
2022-09-18T21:16:43.929Z,8.94
2022-09-18T21:19:16.114Z,8.93
2022-09-18T21:21:44.096Z,8.93
2022-09-18T21:24:12.340Z,8.89
2022-09-18T21:26:42.135Z,8.87
2022-09-18T21:29:13.922Z,8.82
2022-09-18T21:31:43.308Z,8.78
2022-09-18T21:34:16.381Z,8.77
2022-09-18T21:36:44.962Z,8.71
2022-09-18T21:39:14.228Z,8.66
2022-09-18T21:41:46.146Z,8.64
2022-09-18T21:44:16.295Z,8.62
2022-09-18T21:46:45.949Z,8.59
2022-09-18T21:49:16.245Z,8.55
2022-09-18T21:51:44.859Z,8.52
2022-09-18T21:54:15.617Z,8.48
2022-09-18T21:56:44.157Z,8.45
2022-09-18T21:59:12.627Z,8.43
2022-09-18T22:01:41.775Z,8.38
2022-09-18T22:04:10.682Z,8.39
2022-09-18T22:06:42.903Z,8.34
2022-09-18T22:09:13.418Z,8.31
2022-09-18T22:11:42.459Z,8.27
2022-09-18T22:14:12.425Z,8.27
2022-09-18T22:16:40.770Z,8.26
2022-09-18T22:19:09.220Z,8.21
2022-09-18T22:21:38.782Z,8.18
2022-09-18T22:24:10.456Z,8.15
2022-09-18T22:26:41.120Z,8.17
2022-09-18T22:29:14.430Z,8.13
2022-09-18T22:31:44.093Z,8.11
2022-09-18T22:34:12.301Z,8.12
2022-09-18T22:36:40.264Z,8.11
2022-09-18T22:39:09.624Z,8.09
2022-09-18T22:41:39.544Z,8.07
2022-09-18T22:44:08.329Z,8.06
2022-09-18T22:46:38.195Z,8.04
2022-09-18T22:49:06.840Z,8.01
2022-09-18T22:51:34.806Z,7.98
2022-09-18T22:54:07.686Z,7.98
2022-09-18T22:56:39.832Z,7.93
2022-09-18T22:59:08.397Z,7.91
2022-09-18T23:01:41.542Z,7.86
2022-09-18T23:04:10.178Z,7.86
2022-09-18T23:06:38.200Z,7.82
2022-09-18T23:09:06.717Z,7.81
2022-09-18T23:11:36.085Z,7.82
2022-09-18T23:14:06.979Z,7.76
2022-09-18T23:16:36.996Z,7.75
2022-09-18T23:19:14.124Z,7.74
2022-09-18T23:21:42.083Z,7.70
2022-09-18T23:24:10.740Z,7.58
2022-09-18T23:26:40.553Z,7.65
2022-09-18T23:29:12.696Z,7.61
2022-09-18T23:31:43.167Z,7.59
2022-09-18T23:34:14.006Z,7.56
2022-09-18T23:36:44.078Z,7.55
2022-09-18T23:39:14.044Z,7.57
2022-09-18T23:41:43.147Z,7.51
2022-09-18T23:44:16.373Z,7.51
2022-09-18T23:46:45.448Z,7.54
2022-09-18T23:49:14.331Z,7.51
2022-09-18T23:51:44.289Z,7.47
2022-09-18T23:54:16.572Z,7.49
2022-09-18T23:56:45.451Z,7.48
2022-09-18T23:59:18.588Z,7.45
